createdAt,value
2017-08-15T00:00:58.788Z,6.90
2017-08-15T00:03:25.839Z,4.60
2017-08-15T00:05:52.888Z,7.13
2017-08-15T00:08:19.943Z,4.50
2017-08-15T00:10:46.243Z,4.87
2017-08-15T00:13:12.549Z,4.80
2017-08-15T00:15:38.854Z,4.27
2017-08-15T00:18:05.117Z,5.13
2017-08-15T00:20:31.407Z,6.00
2017-08-15T00:22:59.359Z,5.13
2017-08-15T00:25:25.639Z,4.53
2017-08-15T00:27:51.971Z,4.80
2017-08-15T00:30:19.051Z,5.70
2017-08-15T00:32:45.356Z,4.87
2017-08-15T00:35:12.428Z,4.43
2017-08-15T00:37:39.491Z,4.60
2017-08-15T00:40:06.536Z,6.60
2017-08-15T00:42:33.696Z,3.80
2017-08-15T00:45:01.875Z,6.60
2017-08-15T00:47:28.888Z,4.73
2017-08-15T00:49:56.531Z,4.23
2017-08-15T00:52:22.878Z,4.03
2017-08-15T00:54:49.168Z,5.40
2017-08-15T00:57:16.211Z,7.37
2017-08-15T00:59:43.275Z,4.43
2017-08-15T01:02:10.327Z,4.83
2017-08-15T01:04:36.647Z,7.43
2017-08-15T01:07:04.267Z,7.73
2017-08-15T01:09:30.555Z,4.60
2017-08-15T01:11:56.867Z,4.20
2017-08-15T01:14:23.283Z,7.53
2017-08-15T01:16:49.567Z,6.57
2017-08-15T01:19:16.614Z,6.00
2017-08-15T01:21:43.692Z,5.53
2017-08-15T01:24:10.046Z,5.47
2017-08-15T01:26:36.347Z,4.77
2017-08-15T01:29:03.238Z,4.30
2017-08-15T01:31:29.517Z,4.47
2017-08-15T01:33:55.805Z,7.57
2017-08-15T01:36:22.128Z,5.10
2017-08-15T01:38:48.415Z,7.17
2017-08-15T01:41:14.675Z,6.60
2017-08-15T01:43:41.807Z,6.00
2017-08-15T01:46:08.856Z,8.57
2017-08-15T01:48:35.155Z,5.60
2017-08-15T01:51:03.571Z,4.73
2017-08-15T01:53:29.847Z,5.33
2017-08-15T01:55:56.846Z,5.27
2017-08-15T01:58:23.152Z,4.70
2017-08-15T02:00:49.467Z,5.20
2017-08-15T02:03:16.480Z,5.33
2017-08-15T02:05:42.795Z,5.23
2017-08-15T02:08:09.075Z,6.47
2017-08-15T02:10:35.359Z,5.60
2017-08-15T02:13:01.687Z,5.97
2017-08-15T02:15:27.957Z,5.20
2017-08-15T02:17:54.230Z,5.10
2017-08-15T02:20:22.145Z,5.13
2017-08-15T02:22:48.463Z,8.13
2017-08-15T02:25:14.729Z,6.00
2017-08-15T02:27:40.995Z,5.10
2017-08-15T02:30:07.239Z,7.73
2017-08-15T02:32:34.258Z,6.03
2017-08-15T02:35:03.748Z,4.93
2017-08-15T02:37:30.028Z,5.00
2017-08-15T02:39:56.280Z,5.77
2017-08-15T02:42:22.569Z,6.53
2017-08-15T02:44:48.806Z,5.37
2017-08-15T02:47:15.121Z,7.63
2017-08-15T02:49:41.411Z,5.87
2017-08-15T02:52:10.147Z,5.73
2017-08-15T02:54:36.395Z,7.03
2017-08-15T02:57:06.194Z,5.90
2017-08-15T02:59:33.163Z,7.40
2017-08-15T03:01:59.409Z,5.80
2017-08-15T03:04:26.545Z,6.07
2017-08-15T03:06:52.801Z,5.80
2017-08-15T03:09:19.054Z,5.73
2017-08-15T03:11:46.159Z,6.37
2017-08-15T03:14:13.153Z,6.30
2017-08-15T03:16:39.407Z,6.33
2017-08-15T03:19:05.794Z,6.23
2017-08-15T03:21:32.035Z,6.37
2017-08-15T03:24:05.307Z,7.63
2017-08-15T03:26:31.935Z,6.27
2017-08-15T03:28:58.914Z,6.13
2017-08-15T03:31:25.188Z,6.37
2017-08-15T03:33:51.442Z,5.50
2017-08-15T03:36:18.443Z,6.70
2017-08-15T03:38:45.890Z,6.30
2017-08-15T03:41:12.135Z,6.33
2017-08-15T03:43:38.392Z,8.10
2017-08-15T03:46:04.657Z,6.23
2017-08-15T03:48:30.919Z,5.17
2017-08-15T03:50:57.919Z,6.67
2017-08-15T03:53:26.390Z,6.93
2017-08-15T03:55:52.673Z,6.60
2017-08-15T03:58:19.678Z,6.40
2017-08-15T04:00:46.306Z,6.37
2017-08-15T04:03:12.571Z,7.30
2017-08-15T04:05:45.672Z,11.97
2017-08-15T04:08:11.955Z,5.90
2017-08-15T04:10:38.203Z,6.07
2017-08-15T04:13:04.470Z,9.30
2017-08-15T04:15:30.760Z,7.23
2017-08-15T04:17:57.779Z,7.47
2017-08-15T04:20:24.666Z,6.30
2017-08-15T04:22:51.651Z,7.10
2017-08-15T04:25:24.943Z,9.20
2017-08-15T04:27:51.224Z,6.77
2017-08-15T04:30:18.227Z,7.93
2017-08-15T04:32:44.522Z,7.57
2017-08-15T04:35:11.511Z,6.63
2017-08-15T04:37:37.799Z,7.17
2017-08-15T04:40:04.435Z,6.93
2017-08-15T04:42:30.694Z,6.57
2017-08-15T04:44:56.975Z,8.17
2017-08-15T04:47:23.269Z,6.87
2017-08-15T04:49:49.562Z,7.43
2017-08-15T04:52:15.826Z,7.47
2017-08-15T04:54:53.851Z,7.13
2017-08-15T04:57:20.974Z,12.67
2017-08-15T04:59:47.215Z,9.70
2017-08-15T05:02:15.015Z,8.40
2017-08-15T05:04:41.278Z,16.37
2017-08-15T05:07:07.528Z,49.57
2017-08-15T05:09:33.805Z,27.00
2017-08-15T05:12:00.071Z,26.77
2017-08-15T05:14:26.381Z,19.47
2017-08-15T05:16:52.674Z,26.13
2017-08-15T05:19:18.932Z,25.27
2017-08-15T05:21:45.196Z,19.17
2017-08-15T05:24:11.490Z,15.53
2017-08-15T05:26:37.723Z,17.83
2017-08-15T05:29:03.971Z,8.50
2017-08-15T05:31:30.271Z,16.63
2017-08-15T05:33:56.534Z,9.80
2017-08-15T05:36:22.778Z,10.33
2017-08-15T05:38:49.053Z,12.13
2017-08-15T05:41:15.286Z,14.83
2017-08-15T05:43:41.543Z,9.47
2017-08-15T05:46:08.323Z,9.67
2017-08-15T05:48:35.320Z,8.67
2017-08-15T05:51:09.384Z,10.87
2017-08-15T05:53:35.778Z,13.53
2017-08-15T05:56:03.143Z,21.90
2017-08-15T05:58:36.507Z,22.80
2017-08-15T06:01:02.783Z,11.67
2017-08-15T06:03:29.054Z,25.00
2017-08-15T06:05:56.879Z,10.27
2017-08-15T06:08:23.143Z,16.43
2017-08-15T06:10:50.151Z,13.80
2017-08-15T06:13:16.470Z,17.00
2017-08-15T06:15:42.742Z,11.80
2017-08-15T06:18:09.003Z,18.40
2017-08-15T06:20:35.302Z,9.00
2017-08-15T06:23:01.562Z,12.47
2017-08-15T06:25:27.834Z,9.00
2017-08-15T06:27:55.350Z,12.60
2017-08-15T06:30:22.530Z,12.63
2017-08-15T06:32:48.798Z,12.27
2017-08-15T06:35:15.082Z,8.67
2017-08-15T06:37:42.339Z,11.63
2017-08-15T06:40:08.610Z,9.57
2017-08-15T06:42:35.658Z,8.60
2017-08-15T06:45:02.662Z,8.37
2017-08-15T06:47:28.976Z,7.63
2017-08-15T06:49:56.036Z,8.03
2017-08-15T06:52:22.326Z,16.27
2017-08-15T06:54:48.575Z,14.13
2017-08-15T06:57:15.902Z,13.50
2017-08-15T06:59:42.194Z,8.67
2017-08-15T07:02:09.194Z,8.80
2017-08-15T07:04:35.499Z,9.37
2017-08-15T07:07:01.810Z,9.90
2017-08-15T07:09:28.802Z,8.63
2017-08-15T07:11:55.534Z,10.57
2017-08-15T07:14:21.799Z,8.90
2017-08-15T07:16:48.063Z,17.00
2017-08-15T07:19:15.201Z,8.83
2017-08-15T07:21:41.500Z,10.77
2017-08-15T07:24:07.773Z,8.50
2017-08-15T07:26:34.156Z,8.40
2017-08-15T07:29:00.510Z,12.80
2017-08-15T07:31:28.407Z,10.17
2017-08-15T07:33:54.770Z,8.30
2017-08-15T07:36:21.767Z,8.33
2017-08-15T07:38:48.034Z,8.60
2017-08-15T07:41:15.087Z,8.90
2017-08-15T07:43:41.359Z,20.07
2017-08-15T07:46:08.794Z,9.70
2017-08-15T07:48:35.940Z,15.70
2017-08-15T07:51:02.360Z,11.00
2017-08-15T07:53:29.447Z,10.13
2017-08-15T07:55:57.392Z,15.43
2017-08-15T07:58:25.922Z,11.57
2017-08-15T08:00:52.383Z,9.97
2017-08-15T08:03:18.802Z,10.40
2017-08-15T08:05:45.195Z,10.10
2017-08-15T08:08:11.547Z,10.97
2017-08-15T08:10:39.134Z,11.23
2017-08-15T08:13:06.044Z,8.73
2017-08-15T08:15:32.481Z,9.07
2017-08-15T08:17:58.902Z,10.47
2017-08-15T08:20:26.067Z,9.97
2017-08-15T08:22:53.357Z,10.83
2017-08-15T08:25:19.899Z,10.43
2017-08-15T08:27:47.230Z,14.60
2017-08-15T08:30:13.653Z,13.70
2017-08-15T08:32:40.074Z,9.70
2017-08-15T08:35:09.360Z,9.57
2017-08-15T08:37:35.766Z,9.57
2017-08-15T08:40:03.042Z,15.90
2017-08-15T08:42:29.450Z,10.73
2017-08-15T08:44:55.834Z,13.13
2017-08-15T08:47:22.445Z,10.20
2017-08-15T08:49:49.003Z,9.83
2017-08-15T08:52:15.439Z,11.67
2017-08-15T08:54:42.691Z,9.80
2017-08-15T08:57:09.124Z,16.03
2017-08-15T08:59:36.746Z,13.40
2017-08-15T09:02:04.275Z,10.73
2017-08-15T09:04:30.673Z,10.07
2017-08-15T09:06:57.040Z,10.63
2017-08-15T09:09:23.515Z,11.47
2017-08-15T09:11:49.929Z,9.80
2017-08-15T09:14:19.143Z,11.37
2017-08-15T09:16:45.612Z,9.73
2017-08-15T09:19:12.076Z,9.27
2017-08-15T09:21:39.272Z,8.87
2017-08-15T09:24:06.529Z,9.80
2017-08-15T09:26:32.928Z,10.13
2017-08-15T09:29:01.363Z,9.13
2017-08-15T09:31:27.769Z,9.17
2017-08-15T09:33:54.960Z,10.33
2017-08-15T09:36:22.228Z,10.20
2017-08-15T09:38:49.585Z,10.70
2017-08-15T09:41:15.997Z,8.93
2017-08-15T09:43:42.384Z,8.30
2017-08-15T09:46:09.988Z,12.73
2017-08-15T09:48:37.007Z,13.57
2017-08-15T09:51:04.183Z,9.70
2017-08-15T09:53:30.615Z,10.10
2017-08-15T09:55:57.012Z,13.67
2017-08-15T09:58:29.430Z,15.63
2017-08-15T10:00:56.598Z,10.07
2017-08-15T10:03:22.983Z,10.60
2017-08-15T10:05:50.282Z,12.17
2017-08-15T10:08:17.991Z,8.40
2017-08-15T10:10:45.080Z,10.00
2017-08-15T10:13:11.438Z,8.97
2017-08-15T10:15:37.746Z,11.03
2017-08-15T10:18:05.055Z,9.00
2017-08-15T10:20:31.334Z,8.03
2017-08-15T10:22:58.378Z,8.37
2017-08-15T10:25:25.399Z,8.17
2017-08-15T10:27:53.329Z,10.10
2017-08-15T10:30:19.616Z,10.03
2017-08-15T10:32:46.652Z,11.27
2017-08-15T10:35:13.810Z,19.00
2017-08-15T10:37:40.846Z,9.10
2017-08-15T10:40:07.962Z,9.17
2017-08-15T10:42:34.262Z,10.80
2017-08-15T10:45:00.607Z,9.17
2017-08-15T10:47:27.642Z,9.60
2017-08-15T10:49:54.854Z,9.50
2017-08-15T10:52:22.071Z,8.90
2017-08-15T10:54:48.359Z,10.87
2017-08-15T10:57:14.670Z,8.97
2017-08-15T10:59:40.972Z,9.73
2017-08-15T11:02:08.175Z,52.17
2017-08-15T11:04:35.255Z,23.57
2017-08-15T11:07:01.574Z,17.03
2017-08-15T11:09:27.998Z,13.53
2017-08-15T11:11:54.679Z,9.70
2017-08-15T11:14:21.204Z,13.03
2017-08-15T11:16:47.478Z,29.53
2017-08-15T11:19:13.861Z,208.33
2017-08-15T11:21:40.135Z,43.80
2017-08-15T11:24:07.280Z,546.20
2017-08-15T11:26:33.660Z,518.90
2017-08-15T11:29:00.663Z,253.30
2017-08-15T11:31:26.990Z,14.83
2017-08-15T11:33:53.811Z,22.43
2017-08-15T11:36:20.822Z,53.77
2017-08-15T11:38:47.079Z,35.83
2017-08-15T11:41:14.359Z,84.37
2017-08-15T11:43:40.686Z,74.13
2017-08-15T11:46:07.699Z,42.60
2017-08-15T11:48:34.009Z,35.07
2017-08-15T11:51:01.148Z,27.47
2017-08-15T11:53:27.463Z,17.70
2017-08-15T11:55:55.383Z,30.13
2017-08-15T11:58:21.678Z,18.80
2017-08-15T12:00:48.686Z,14.17
2017-08-15T12:03:15.426Z,23.47
2017-08-15T12:05:41.730Z,10.37
2017-08-15T12:08:08.038Z,20.20
2017-08-15T12:10:34.319Z,16.13
2017-08-15T12:13:01.336Z,25.37
2017-08-15T12:15:28.371Z,17.43
2017-08-15T12:17:54.675Z,16.23
2017-08-15T12:20:20.963Z,14.50
2017-08-15T12:22:47.250Z,10.97
2017-08-15T12:25:15.286Z,15.50
2017-08-15T12:27:42.287Z,12.50
2017-08-15T12:30:08.610Z,9.13
2017-08-15T12:32:34.903Z,9.33
2017-08-15T12:35:02.121Z,11.40
2017-08-15T12:37:28.414Z,17.23
2017-08-15T12:39:55.502Z,10.47
2017-08-15T12:42:21.795Z,9.60
2017-08-15T12:44:49.034Z,10.03
2017-08-15T12:47:15.483Z,10.97
2017-08-15T12:49:41.770Z,13.13
2017-08-15T12:52:08.872Z,16.87
2017-08-15T12:54:35.186Z,12.93
2017-08-15T12:57:02.234Z,9.80
2017-08-15T12:59:28.538Z,9.80
2017-08-15T13:01:54.877Z,10.47
2017-08-15T13:04:23.670Z,9.53
2017-08-15T13:06:49.982Z,8.70
2017-08-15T13:09:16.314Z,10.10
2017-08-15T13:11:43.539Z,9.73
2017-08-15T13:14:09.818Z,8.90
2017-08-15T13:16:36.107Z,11.23
2017-08-15T13:19:02.402Z,9.53
2017-08-15T13:21:28.705Z,11.10
2017-08-15T13:24:03.158Z,8.60
2017-08-15T13:26:29.486Z,9.20
2017-08-15T13:28:55.923Z,18.23
2017-08-15T13:31:22.224Z,9.47
2017-08-15T13:33:49.466Z,16.23
2017-08-15T13:36:15.831Z,9.03
2017-08-15T13:38:43.127Z,9.10
2017-08-15T13:41:10.279Z,9.20
2017-08-15T13:43:36.579Z,10.57
2017-08-15T13:46:03.498Z,8.93
2017-08-15T13:48:29.841Z,13.00
2017-08-15T13:50:56.139Z,9.50
2017-08-15T13:53:22.523Z,8.90
2017-08-15T13:55:48.839Z,8.87
2017-08-15T13:58:15.150Z,10.10
2017-08-15T14:00:42.486Z,14.83
2017-08-15T14:03:08.817Z,7.23
2017-08-15T14:05:37.030Z,7.07
2017-08-15T14:08:05.446Z,7.77
2017-08-15T14:10:31.745Z,10.77
2017-08-15T14:13:00.147Z,8.97
2017-08-15T14:15:26.467Z,11.70
2017-08-15T14:17:52.770Z,7.50
2017-08-15T14:20:20.838Z,6.90
2017-08-15T14:22:47.195Z,6.40
2017-08-15T14:25:13.502Z,11.50
2017-08-15T14:27:40.546Z,6.40
2017-08-15T14:30:08.390Z,6.57
2017-08-15T14:32:34.684Z,10.33
2017-08-15T14:35:00.983Z,7.43
2017-08-15T14:37:27.352Z,10.23
2017-08-15T14:39:53.630Z,9.60
2017-08-15T14:42:19.947Z,12.93
2017-08-15T14:44:47.231Z,12.93
2017-08-15T14:47:14.456Z,7.60
2017-08-15T14:49:42.398Z,7.47
2017-08-15T14:52:10.963Z,8.80
2017-08-15T14:54:44.283Z,12.43
2017-08-15T14:57:13.580Z,8.70
2017-08-15T14:59:39.882Z,13.50
2017-08-15T15:02:07.131Z,17.23
2017-08-15T15:04:33.440Z,7.77
2017-08-15T15:07:01.152Z,11.13
2017-08-15T15:09:27.454Z,9.13
2017-08-15T15:11:53.891Z,7.73
2017-08-15T15:14:20.170Z,9.30
2017-08-15T15:16:47.455Z,11.07
2017-08-15T15:19:13.818Z,10.37
2017-08-15T15:21:40.110Z,7.67
2017-08-15T15:24:06.394Z,8.10
2017-08-15T15:26:33.434Z,9.20
2017-08-15T15:29:00.565Z,10.43
2017-08-15T15:31:26.966Z,8.70
2017-08-15T15:33:53.355Z,9.07
2017-08-15T15:36:19.689Z,14.33
2017-08-15T15:38:45.976Z,8.03
2017-08-15T15:43:34.900Z,9.60
2017-08-15T15:46:01.197Z,7.87
2017-08-15T15:48:27.539Z,9.43
2017-08-15T15:50:53.907Z,7.93
2017-08-15T15:53:20.174Z,7.40
2017-08-15T15:55:47.217Z,7.37
2017-08-15T15:58:14.250Z,7.70
2017-08-15T16:00:40.707Z,8.03
2017-08-15T16:03:06.936Z,7.30
2017-08-15T16:05:33.252Z,13.57
2017-08-15T16:08:00.376Z,10.50
2017-08-15T16:10:27.365Z,11.80
2017-08-15T16:12:54.489Z,7.30
2017-08-15T16:15:21.463Z,7.37
2017-08-15T16:17:47.710Z,7.93
2017-08-15T16:20:14.032Z,8.57
2017-08-15T16:22:40.278Z,7.33
2017-08-15T16:25:06.553Z,11.33
2017-08-15T16:27:32.826Z,9.83
2017-08-15T16:29:59.144Z,10.63
2017-08-15T16:32:26.123Z,8.40
2017-08-15T16:34:52.498Z,10.73
2017-08-15T16:37:18.730Z,6.83
2017-08-15T16:39:44.996Z,11.77
2017-08-15T16:44:33.647Z,9.43
2017-08-15T16:46:59.909Z,10.17
2017-08-15T16:49:26.166Z,8.70
2017-08-15T16:51:52.762Z,14.93
2017-08-15T16:54:19.026Z,16.00
2017-08-15T16:56:45.276Z,19.70
2017-08-15T16:59:11.578Z,15.40
2017-08-15T17:01:37.845Z,13.43
2017-08-15T17:04:04.835Z,16.17
2017-08-15T17:06:31.425Z,14.13
2017-08-15T17:09:09.167Z,7.20
2017-08-15T17:11:35.962Z,7.97
2017-08-15T17:14:02.226Z,9.00
2017-08-15T17:16:29.198Z,12.23
2017-08-15T17:18:55.561Z,8.57
2017-08-15T17:21:21.907Z,10.50
2017-08-15T17:23:48.142Z,10.60
2017-08-15T17:26:15.810Z,14.63
2017-08-15T17:28:42.830Z,7.83
2017-08-15T17:31:09.147Z,15.87
2017-08-15T17:33:35.500Z,18.03
2017-08-15T17:36:01.749Z,9.90
2017-08-15T17:38:28.020Z,8.93
2017-08-15T17:40:54.307Z,10.30
2017-08-15T17:43:20.830Z,10.90
2017-08-15T17:45:47.891Z,9.20
2017-08-15T17:48:14.278Z,10.03
2017-08-15T17:50:40.536Z,22.00
2017-08-15T17:53:06.766Z,10.87
2017-08-15T17:55:33.026Z,20.33
2017-08-15T17:57:59.285Z,16.03
2017-08-15T18:00:25.590Z,15.53
2017-08-15T18:02:51.823Z,19.60
2017-08-15T18:05:18.076Z,14.60
2017-08-15T18:07:44.330Z,11.27
2017-08-15T18:10:12.599Z,17.03
2017-08-15T18:12:38.851Z,15.27
2017-08-15T18:15:05.083Z,18.77
2017-08-15T18:17:33.488Z,17.43
2017-08-15T18:19:59.793Z,20.47
2017-08-15T18:22:26.074Z,22.83
2017-08-15T18:24:52.404Z,17.30
2017-08-15T18:27:19.438Z,12.00
2017-08-15T18:29:45.642Z,7.17
2017-08-15T18:32:12.627Z,9.00
2017-08-15T18:34:38.843Z,7.70
2017-08-15T18:37:05.068Z,4.10
2017-08-15T18:39:32.107Z,6.90
2017-08-15T18:41:58.374Z,7.57
2017-08-15T18:44:24.781Z,6.40
2017-08-15T18:46:51.109Z,5.83
2017-08-15T18:49:17.363Z,5.20
2017-08-15T18:51:43.620Z,7.50
2017-08-15T18:54:09.875Z,8.23
2017-08-15T18:56:36.099Z,8.70
2017-08-15T18:59:02.307Z,13.37
2017-08-15T19:01:28.567Z,11.63
2017-08-15T19:03:54.798Z,8.83
2017-08-15T19:06:21.026Z,6.40
2017-08-15T19:08:47.286Z,8.77
2017-08-15T19:11:14.099Z,6.20
2017-08-15T19:13:40.313Z,10.40
2017-08-15T19:16:07.298Z,11.23
2017-08-15T19:18:33.510Z,8.43
2017-08-15T19:20:59.742Z,16.10
2017-08-15T19:23:27.594Z,9.80
2017-08-15T19:25:53.823Z,11.23
2017-08-15T19:28:20.054Z,12.60
2017-08-15T19:30:46.305Z,8.67
2017-08-15T19:33:12.550Z,11.30
2017-08-15T19:35:39.507Z,10.50
2017-08-15T19:38:05.766Z,16.40
2017-08-15T19:40:32.113Z,7.20
2017-08-15T19:42:58.330Z,12.97
2017-08-15T19:45:25.146Z,6.50
2017-08-15T19:47:51.491Z,9.13
2017-08-15T19:50:17.978Z,10.80
2017-08-15T19:52:44.218Z,12.27
2017-08-15T19:55:10.450Z,6.33
2017-08-15T19:57:36.666Z,9.60
2017-08-15T20:00:02.922Z,8.30
2017-08-15T20:02:29.154Z,7.13
2017-08-15T20:04:55.384Z,8.13
2017-08-15T20:07:21.930Z,7.03
2017-08-15T20:09:48.166Z,8.97
2017-08-15T20:12:16.081Z,13.60
2017-08-15T20:14:43.234Z,6.73
2017-08-15T20:17:10.246Z,7.47
2017-08-15T20:19:36.490Z,5.60
2017-08-15T20:22:02.758Z,5.50
2017-08-15T20:24:29.775Z,7.30
2017-08-15T20:26:56.007Z,7.03
2017-08-15T20:29:29.545Z,7.90
2017-08-15T20:31:56.547Z,8.20
2017-08-15T20:34:22.770Z,6.83
2017-08-15T20:36:49.039Z,7.67
2017-08-15T20:39:15.278Z,9.20
2017-08-15T20:41:41.513Z,6.17
2017-08-15T20:44:07.746Z,8.30
2017-08-15T20:46:33.965Z,7.03
2017-08-15T20:49:00.180Z,6.03
2017-08-15T20:51:26.717Z,159.17
2017-08-15T20:53:52.975Z,29.20
2017-08-15T20:56:19.210Z,17.63
2017-08-15T20:58:45.467Z,9.93
2017-08-15T21:01:11.697Z,7.50
2017-08-15T21:03:37.946Z,6.70
2017-08-15T21:06:04.928Z,10.70
2017-08-15T21:08:31.156Z,10.93
2017-08-15T21:10:57.374Z,7.80
2017-08-15T21:13:27.594Z,10.50
2017-08-15T21:15:53.801Z,13.17
2017-08-15T21:18:20.027Z,11.57
2017-08-15T21:20:46.271Z,8.57
2017-08-15T21:23:12.499Z,8.97
2017-08-15T21:25:38.730Z,9.63
2017-08-15T21:28:05.015Z,12.50
2017-08-15T21:30:31.990Z,8.57
2017-08-15T21:32:58.245Z,8.20
2017-08-15T21:35:24.528Z,14.97
2017-08-15T21:37:50.750Z,14.73
2017-08-15T21:40:17.732Z,14.10
2017-08-15T21:42:44.794Z,17.63
2017-08-15T21:45:11.010Z,18.20
2017-08-15T21:47:37.222Z,12.23
2017-08-15T21:50:03.472Z,12.90
2017-08-15T21:52:30.436Z,14.80
2017-08-15T21:54:57.394Z,13.47
2017-08-15T21:57:24.221Z,10.30
2017-08-15T21:59:51.183Z,9.87
2017-08-15T22:02:19.992Z,8.93
2017-08-15T22:04:46.254Z,13.20
2017-08-15T22:07:12.471Z,10.43
2017-08-15T22:09:38.687Z,9.53
2017-08-15T22:12:04.935Z,9.77
2017-08-15T22:14:31.775Z,8.20
2017-08-15T22:16:57.995Z,10.63
2017-08-15T22:19:25.556Z,7.13
2017-08-15T22:21:52.519Z,8.80
2017-08-15T22:24:18.739Z,11.60
2017-08-15T22:26:45.743Z,8.30
2017-08-15T22:29:11.972Z,8.70
2017-08-15T22:31:38.223Z,7.53
2017-08-15T22:34:04.474Z,13.23
2017-08-15T22:36:30.694Z,11.90
2017-08-15T22:38:56.922Z,8.57
2017-08-15T22:41:23.506Z,17.50
2017-08-15T22:43:50.494Z,8.23
2017-08-15T22:46:16.753Z,8.00
2017-08-15T22:48:42.984Z,6.03
2017-08-15T22:51:09.275Z,8.70
2017-08-15T22:53:35.519Z,8.23
2017-08-15T22:56:01.762Z,8.00
2017-08-15T22:58:28.000Z,7.93
2017-08-15T23:00:54.223Z,6.80
2017-08-15T23:03:20.839Z,8.43
2017-08-15T23:05:47.072Z,8.53
2017-08-15T23:08:13.302Z,5.87
2017-08-15T23:10:40.287Z,7.20
2017-08-15T23:13:06.531Z,7.43
2017-08-15T23:15:32.856Z,5.33
2017-08-15T23:17:59.183Z,8.30
2017-08-15T23:20:26.145Z,6.57
2017-08-15T23:22:52.382Z,6.73
2017-08-15T23:25:19.383Z,5.60
2017-08-15T23:27:45.651Z,6.37
2017-08-15T23:30:11.862Z,7.87
2017-08-15T23:32:38.114Z,7.27
2017-08-15T23:35:05.064Z,8.10
2017-08-15T23:37:32.016Z,7.43
2017-08-15T23:39:59.019Z,7.93
2017-08-15T23:42:25.248Z,6.70
2017-08-15T23:44:51.478Z,10.50
2017-08-15T23:47:19.510Z,8.73
2017-08-15T23:49:45.716Z,14.63
2017-08-15T23:52:11.930Z,11.47
2017-08-15T23:54:38.182Z,10.77
2017-08-15T23:57:04.415Z,11.43
2017-08-15T23:59:30.622Z,13.37
